Aviation Digital Data Service (ADDS)

Output produced by METARs form (0438 UTC 27 August 2016)
found at http://aviationweather.gov/adds/metars/
 
KHYA 270259Z 2703/2724 22004KT P6SM SKC 
     FM270400 30004KT P6SM SKC 
     FM270600 35005KT P6SM FEW250 
     FM272000 05007KT P6SM FEW060